Time;durP1;ratioP1;P1;durP2;ratioP2;P2;SDS_P1;SDS_P2;PMS_P1;PMS_P2;Temp;Humidity;BMP_temperature;BMP_pressure;BME280_temperature;BME280_humidity;BME280_pressure;Samples;Min_cycle;Max_cycle;Signal;HPM_P1;HPM_P2
2022/06/30 00:20:13;;;;;;;14.27;9.63;;;19.30;99.90;;;;;;5149999;27;20546;-70
2022/06/30 00:22:40;;;;;;;12.80;10.17;;;19.60;99.90;;;;;;5150016;27;20301;-70
2022/06/30 00:25:07;;;;;;;12.10;10.27;;;19.70;99.90;;;;;;5150360;27;20718;-70
2022/06/30 00:27:34;;;;;;;10.83;9.70;;;19.70;99.90;;;;;;5149543;27;20206;-70
2022/06/30 00:30:01;;;;;;;11.80;9.73;;;19.70;99.90;;;;;;5149652;27;20301;-70
2022/06/30 00:32:29;;;;;;;12.13;10.10;;;19.80;99.90;;;;;;5149833;27;20204;-70
2022/06/30 00:34:56;;;;;;;12.83;9.87;;;19.80;99.90;;;;;;5149926;27;20198;-71
2022/06/30 00:37:24;;;;;;;12.17;10.27;;;19.80;99.90;;;;;;5149605;27;20292;-70
2022/06/30 00:39:51;;;;;;;12.60;10.07;;;19.80;99.90;;;;;;5149566;27;20217;-71
2022/06/30 00:42:18;;;;;;;12.83;10.30;;;19.90;99.90;;;;;;5149830;27;20198;-71
2022/06/30 00:44:45;;;;;;;12.13;9.53;;;19.90;99.90;;;;;;5146766;27;20546;-69
2022/06/30 00:47:12;;;;;;;11.27;9.50;;;19.90;99.90;;;;;;5149109;27;20202;-70
2022/06/30 00:49:39;;;;;;;12.93;10.03;;;19.90;99.90;;;;;;5149497;27;20547;-69
2022/06/30 00:52:11;;;;;;;14.53;10.97;;;19.90;99.90;;;;;;5149316;27;20198;-70
2022/06/30 00:54:40;;;;;;;12.53;10.37;;;19.90;99.90;;;;;;5148276;27;20206;-71
2022/06/30 00:57:10;;;;;;;13.13;11.37;;;19.80;99.90;;;;;;5149065;27;20247;-71
2022/06/30 00:59:39;;;;;;;17.93;11.10;;;19.80;99.90;;;;;;5149283;27;20183;-70
2022/06/30 01:02:07;;;;;;;13.37;10.67;;;19.80;99.90;;;;;;5149036;27;20198;-70
2022/06/30 01:04:37;;;;;;;12.87;11.07;;;19.80;99.90;;;;;;5149183;27;20200;-71
2022/06/30 01:07:05;;;;;;;13.77;11.43;;;19.80;99.90;;;;;;5148154;27;20212;-70
2022/06/30 01:12:44;;;;;;;16.07;10.90;;;19.90;99.90;;;;;;5084717;28;20352;-70
2022/06/30 01:15:12;;;;;;;13.33;10.90;;;19.90;99.90;;;;;;5083923;28;20275;-70
2022/06/30 01:17:39;;;;;;;12.80;10.83;;;19.80;99.90;;;;;;5107556;27;20545;-70
2022/06/30 01:20:07;;;;;;;17.53;11.73;;;19.80;99.90;;;;;;5119844;27;20238;-69
2022/06/30 01:22:36;;;;;;;15.33;11.97;;;19.80;99.90;;;;;;5114357;28;20660;-70
2022/06/30 01:25:03;;;;;;;12.47;10.77;;;19.80;99.90;;;;;;5114926;27;20257;-70
2022/06/30 01:27:30;;;;;;;14.60;12.50;;;19.70;99.90;;;;;;5130479;27;20578;-69
2022/06/30 01:29:58;;;;;;;13.20;11.40;;;19.70;99.90;;;;;;5134980;27;20225;-70
2022/06/30 01:32:25;;;;;;;14.80;11.70;;;19.70;99.90;;;;;;5134576;27;20268;-69
2022/06/30 01:34:52;;;;;;;16.47;13.00;;;19.70;99.90;;;;;;5132971;27;20351;-71
2022/06/30 01:37:19;;;;;;;16.73;12.37;;;19.70;99.90;;;;;;5134745;27;20295;-70
2022/06/30 01:39:47;;;;;;;21.67;13.40;;;19.70;99.90;;;;;;5135296;27;20719;-70
2022/06/30 01:42:14;;;;;;;19.13;12.80;;;19.70;99.90;;;;;;5135050;27;20653;-71
2022/06/30 01:44:41;;;;;;;19.27;13.43;;;19.60;99.90;;;;;;5134068;27;20221;-70
2022/06/30 01:47:09;;;;;;;15.73;12.03;;;19.60;99.90;;;;;;5134833;27;20202;-70
2022/06/30 01:49:37;;;;;;;14.57;12.03;;;19.60;99.90;;;;;;5134725;27;20222;-70
2022/06/30 01:52:04;;;;;;;15.47;12.63;;;19.60;99.90;;;;;;5135148;27;20369;-71
2022/06/30 01:54:31;;;;;;;13.00;10.80;;;19.60;99.90;;;;;;5134814;27;20201;-70
2022/06/30 01:56:59;;;;;;;16.03;12.17;;;19.60;99.90;;;;;;5133678;27;20298;-70
2022/06/30 01:59:26;;;;;;;14.93;11.00;;;19.50;99.90;;;;;;5134541;27;20198;-69
2022/06/30 02:01:53;;;;;;;15.57;11.50;;;19.50;99.90;;;;;;5134553;27;20664;-70
2022/06/30 02:07:05;;;;;;;14.07;10.73;;;19.50;99.90;;;;;;5133623;27;20183;-69
2022/06/30 02:09:32;;;;;;;14.57;11.13;;;19.50;99.90;;;;;;5134423;27;20233;-70
2022/06/30 02:14:44;;;;;;;14.40;12.00;;;19.50;99.90;;;;;;5134421;27;20185;-70
2022/06/30 02:17:11;;;;;;;16.17;11.60;;;19.50;99.90;;;;;;5134471;27;20206;-70
2022/06/30 02:19:38;;;;;;;15.77;12.63;;;19.50;99.90;;;;;;5133314;27;20760;-70
2022/06/30 02:22:05;;;;;;;18.67;12.37;;;19.50;99.90;;;;;;5133879;27;20246;-70
2022/06/30 02:24:32;;;;;;;15.90;12.53;;;19.50;99.90;;;;;;5133740;27;20254;-69
2022/06/30 02:27:00;;;;;;;17.63;13.80;;;19.50;99.90;;;;;;5134154;27;20717;-71
2022/06/30 02:29:27;;;;;;;15.13;11.93;;;19.60;99.90;;;;;;5133595;27;20218;-71
2022/06/30 02:31:54;;;;;;;13.70;11.20;;;19.60;99.90;;;;;;5131430;27;20203;-70
2022/06/30 02:34:21;;;;;;;20.90;12.70;;;19.70;99.90;;;;;;5134041;27;20291;-70
2022/06/30 02:36:48;;;;;;;14.50;12.57;;;19.80;99.90;;;;;;5133723;27;20289;-69
2022/06/30 02:39:15;;;;;;;13.13;11.73;;;19.80;99.90;;;;;;5133471;27;20251;-70
2022/06/30 02:41:42;;;;;;;16.70;13.00;;;19.90;99.90;;;;;;5132981;27;20253;-70
2022/06/30 02:44:10;;;;;;;19.87;13.10;;;19.90;99.90;;;;;;5133890;27;20707;-70
2022/06/30 02:46:37;;;;;;;15.03;12.20;;;19.90;99.90;;;;;;5134163;27;20293;-70
2022/06/30 02:49:04;;;;;;;14.83;12.43;;;19.90;99.90;;;;;;5133693;27;20225;-70
2022/06/30 02:51:31;;;;;;;17.87;14.00;;;19.90;99.90;;;;;;5133762;27;20726;-70
2022/06/30 02:53:58;;;;;;;16.10;12.53;;;20.00;99.90;;;;;;5132049;27;20252;-70
2022/06/30 02:56:25;;;;;;;18.60;11.93;;;19.90;99.90;;;;;;5133293;27;20211;-69
2022/06/30 02:58:52;;;;;;;20.80;12.07;;;19.90;99.90;;;;;;5133419;27;20198;-70
2022/06/30 03:01:21;;;;;;;13.07;11.30;;;20.00;99.90;;;;;;5133296;27;20300;-70
2022/06/30 03:03:48;;;;;;;15.27;12.13;;;20.00;99.90;;;;;;5133599;27;20205;-70
2022/06/30 03:06:15;;;;;;;16.93;11.57;;;20.00;99.90;;;;;;5132162;27;20235;-69
2022/06/30 03:08:42;;;;;;;15.60;12.17;;;20.10;99.90;;;;;;5133223;27;20625;-69
2022/06/30 03:11:16;;;;;;;13.50;10.47;;;20.10;99.90;;;;;;5132870;27;20203;-69
2022/06/30 03:13:43;;;;;;;12.57;10.23;;;20.30;99.90;;;;;;5133350;27;20219;-70
2022/06/30 03:16:10;;;;;;;13.90;11.13;;;20.40;99.90;;;;;;5133217;27;20567;-71
2022/06/30 03:18:38;;;;;;;14.63;11.20;;;20.40;99.90;;;;;;5132218;27;20662;-71
2022/06/30 03:21:05;;;;;;;13.60;10.90;;;20.50;99.90;;;;;;5133079;27;20199;-70
2022/06/30 03:23:32;;;;;;;13.70;10.50;;;20.50;99.90;;;;;;5133037;27;20252;-70
2022/06/30 03:25:59;;;;;;;13.27;10.20;;;20.50;99.90;;;;;;5132897;27;20209;-70
2022/06/30 03:28:26;;;;;;;11.27;9.17;;;20.60;99.90;;;;;;5132905;27;20203;-70
2022/06/30 03:30:53;;;;;;;11.47;9.30;;;20.70;99.90;;;;;;5128818;27;20289;-70
2022/06/30 03:33:20;;;;;;;13.13;9.80;;;20.90;99.90;;;;;;5131498;27;20715;-69
2022/06/30 03:35:49;;;;;;;11.67;9.23;;;20.90;99.90;;;;;;5133102;27;20202;-70
2022/06/30 03:38:16;;;;;;;11.73;9.87;;;21.00;99.90;;;;;;5132875;27;20230;-70
2022/06/30 03:40:43;;;;;;;12.03;9.43;;;21.10;99.90;;;;;;5133250;27;20675;-69
2022/06/30 03:43:10;;;;;;;12.00;9.30;;;21.10;99.90;;;;;;5133412;27;20225;-70
2022/06/30 03:45:37;;;;;;;14.33;9.67;;;21.20;99.90;;;;;;5131645;27;20300;-70
2022/06/30 03:48:06;;;;;;;10.13;9.03;;;21.20;99.90;;;;;;5132677;27;20202;-70
2022/06/30 03:50:33;;;;;;;11.33;8.40;;;21.20;99.90;;;;;;5132377;27;20229;-70
2022/06/30 03:53:02;;;;;;;12.37;8.53;;;21.20;99.90;;;;;;5132653;27;20289;-70
2022/06/30 03:55:33;;;;;;;10.73;8.77;;;21.10;99.90;;;;;;5132125;27;20209;-71
2022/06/30 03:58:00;;;;;;;10.60;8.67;;;21.10;99.90;;;;;;5132762;27;20191;-70
2022/06/30 04:00:27;;;;;;;12.00;9.50;;;21.10;99.90;;;;;;5132581;27;20296;-69
2022/06/30 04:02:54;;;;;;;12.67;8.40;;;21.20;99.90;;;;;;5132290;27;20203;-70
2022/06/30 04:05:21;;;;;;;12.23;9.00;;;21.20;99.90;;;;;;5132476;27;20321;-70
2022/06/30 04:07:48;;;;;;;11.57;9.30;;;21.20;99.90;;;;;;5131626;27;20285;-71
2022/06/30 04:10:18;;;;;;;11.70;9.67;;;21.20;99.90;;;;;;5132320;27;20226;-70
2022/06/30 04:12:45;;;;;;;9.97;8.40;;;21.30;99.90;;;;;;5132370;27;20202;-71
2022/06/30 04:15:12;;;;;;;10.37;8.27;;;21.40;99.90;;;;;;5132002;27;20263;-71
2022/06/30 04:17:39;;;;;;;10.60;8.13;;;21.50;99.90;;;;;;5130945;27;20194;-70
2022/06/30 04:20:15;;;;;;;8.80;7.60;;;21.60;99.90;;;;;;5130520;27;20242;-70
2022/06/30 04:22:43;;;;;;;10.27;7.87;;;21.70;99.90;;;;;;5132097;27;20182;-70
2022/06/30 04:25:11;;;;;;;9.93;7.70;;;21.70;99.90;;;;;;5131701;27;20200;-70
2022/06/30 04:27:42;;;;;;;9.00;7.57;;;21.80;99.90;;;;;;5131892;27;20205;-71
2022/06/30 04:30:10;;;;;;;10.83;7.27;;;21.80;99.90;;;;;;5131028;27;20237;-71
2022/06/30 04:32:38;;;;;;;11.37;7.13;;;21.70;99.90;;;;;;5132167;27;20632;-70
2022/06/30 04:35:07;;;;;;;9.70;7.13;;;21.80;99.90;;;;;;5131882;27;20209;-70
2022/06/30 04:37:33;;;;;;;9.77;6.93;;;21.80;99.90;;;;;;5132320;27;20207;-70
2022/06/30 04:42:46;;;;;;;7.57;6.43;;;21.90;99.90;;;;;;5131074;28;20571;-69
2022/06/30 04:45:13;;;;;;;8.63;6.33;;;22.00;99.90;;;;;;5132329;27;20298;-70
2022/06/30 04:47:41;;;;;;;7.47;6.50;;;22.10;99.90;;;;;;5132076;27;20209;-71
2022/06/30 04:50:09;;;;;;;8.17;6.03;;;22.10;99.90;;;;;;5131854;27;20417;-71
2022/06/30 04:52:36;;;;;;;6.57;5.37;;;22.20;99.90;;;;;;5130712;27;20197;-71
2022/06/30 04:55:04;;;;;;;6.43;5.83;;;22.20;99.90;;;;;;5131295;27;20603;-70
2022/06/30 04:57:31;;;;;;;11.73;9.43;;;22.30;99.90;;;;;;5134242;27;20206;-70
2022/06/30 04:59:59;;;;;;;10.40;7.50;;;22.30;99.90;;;;;;5134615;27;20278;-70
2022/06/30 05:02:26;;;;;;;7.13;5.93;;;22.40;99.90;;;;;;5134442;27;20205;-70
2022/06/30 05:04:53;;;;;;;10.70;6.93;;;22.40;99.90;;;;;;5132231;27;20610;-71
2022/06/30 05:07:21;;;;;;;6.90;5.87;;;22.50;99.90;;;;;;5133328;27;20200;-71
2022/06/30 05:09:48;;;;;;;7.23;6.37;;;22.50;99.90;;;;;;5133885;27;20587;-71
2022/06/30 05:12:15;;;;;;;9.03;5.77;;;22.60;99.90;;;;;;5134340;27;20199;-71
2022/06/30 05:14:42;;;;;;;7.53;5.80;;;22.70;99.90;;;;;;5134206;27;20204;-70
2022/06/30 05:17:10;;;;;;;6.57;5.43;;;22.80;99.90;;;;;;5130848;27;20209;-70
2022/06/30 05:19:38;;;;;;;6.20;5.53;;;22.90;99.90;;;;;;5132761;27;20255;-71
2022/06/30 05:22:05;;;;;;;6.60;5.53;;;23.00;99.90;;;;;;5135323;27;20576;-70
2022/06/30 05:27:17;;;;;;;5.23;4.70;;;23.10;99.90;;;;;;5132654;27;20562;-70
2022/06/30 05:29:44;;;;;;;6.30;5.10;;;23.10;99.90;;;;;;5133044;27;20225;-71
2022/06/30 05:32:12;;;;;;;6.30;5.13;;;23.20;99.90;;;;;;5134572;27;20545;-70
2022/06/30 05:34:39;;;;;;;5.80;5.00;;;23.20;99.90;;;;;;5132454;27;20240;-68
2022/06/30 05:37:06;;;;;;;9.77;8.23;;;23.30;99.90;;;;;;5131420;27;20202;-68
2022/06/30 05:39:33;;;;;;;8.37;5.07;;;23.40;99.90;;;;;;5131030;27;20253;-68
2022/06/30 05:42:00;;;;;;;4.93;4.10;;;23.40;99.90;;;;;;5133597;27;20201;-68
2022/06/30 05:44:28;;;;;;;4.67;4.13;;;23.50;99.90;;;;;;5133787;27;20203;-69
2022/06/30 05:46:55;;;;;;;5.10;4.37;;;23.50;99.90;;;;;;5132125;27;20646;-68
2022/06/30 05:49:23;;;;;;;5.90;4.77;;;23.60;99.90;;;;;;5133571;27;20230;-68
2022/06/30 05:51:50;;;;;;;5.93;5.17;;;23.60;99.90;;;;;;5134367;27;20250;-68
2022/06/30 05:54:17;;;;;;;6.03;4.83;;;23.70;99.90;;;;;;5134747;27;20255;-68
2022/06/30 05:56:44;;;;;;;5.87;4.97;;;23.80;99.90;;;;;;5133361;27;20206;-67
2022/06/30 05:59:11;;;;;;;7.10;4.83;;;23.80;99.90;;;;;;5134058;27;20202;-67
2022/06/30 06:01:39;;;;;;;5.63;4.93;;;23.90;99.90;;;;;;5133230;27;20198;-66
2022/06/30 06:04:06;;;;;;;6.43;5.47;;;23.90;99.90;;;;;;5133175;27;20727;-71
2022/06/30 06:06:34;;;;;;;6.00;5.13;;;24.00;99.90;;;;;;5134198;27;20219;-69
2022/06/30 06:09:01;;;;;;;5.73;5.00;;;24.10;99.90;;;;;;5134260;27;20695;-69
2022/06/30 06:11:30;;;;;;;7.67;5.20;;;24.20;99.90;;;;;;5133503;27;20751;-68
2022/06/30 06:13:56;;;;;;;6.23;4.97;;;24.30;99.90;;;;;;5132484;27;20205;-69
2022/06/30 06:16:23;;;;;;;8.13;5.10;;;24.40;99.90;;;;;;5133475;27;20209;-69
2022/06/30 06:18:50;;;;;;;6.40;5.30;;;24.40;99.90;;;;;;5133669;27;20302;-70
2022/06/30 06:21:17;;;;;;;7.40;5.10;;;24.40;99.90;;;;;;5134260;27;20302;-70
2022/06/30 06:23:45;;;;;;;7.93;5.30;;;24.40;99.90;;;;;;5131165;27;20207;-70
2022/06/30 06:26:12;;;;;;;6.63;4.80;;;24.40;99.90;;;;;;5132291;27;20211;-68
2022/06/30 06:31:24;;;;;;;4.97;4.13;;;24.50;99.90;;;;;;5133819;27;20726;-69
2022/06/30 06:33:50;;;;;;;6.00;4.33;;;24.50;99.90;;;;;;5131785;27;20285;-67
2022/06/30 06:36:17;;;;;;;6.40;5.23;;;24.60;99.90;;;;;;5132954;27;20200;-69
2022/06/30 06:38:45;;;;;;;5.77;4.53;;;24.70;99.90;;;;;;5133686;27;20675;-69
2022/06/30 06:41:12;;;;;;;4.13;3.73;;;24.70;99.90;;;;;;5134154;27;20203;-71
2022/06/30 06:43:39;;;;;;;4.77;4.10;;;24.70;99.90;;;;;;5133719;27;20211;-69
2022/06/30 06:46:06;;;;;;;5.23;3.70;;;24.80;99.90;;;;;;5131783;27;20206;-69
2022/06/30 06:48:33;;;;;;;5.03;3.57;;;24.80;99.90;;;;;;5132071;27;20202;-69
2022/06/30 06:51:00;;;;;;;5.00;3.40;;;24.90;99.90;;;;;;5116374;27;20307;-69
2022/06/30 06:53:27;;;;;;;5.97;3.30;;;24.90;99.90;;;;;;5112735;28;20201;-69
2022/06/30 06:55:55;;;;;;;4.20;3.55;;;24.90;99.90;;;;;;5112878;28;20285;-70
2022/06/30 06:58:22;;;;;;;4.07;3.28;;;25.00;99.90;;;;;;5119423;27;20293;-67
2022/06/30 07:00:49;;;;;;;5.65;3.10;;;25.00;99.90;;;;;;5132111;27;20289;-69
2022/06/30 07:03:16;;;;;;;4.80;3.27;;;25.00;99.90;;;;;;5133316;27;20250;-68
2022/06/30 07:05:43;;;;;;;6.43;3.75;;;25.10;99.90;;;;;;5132850;27;20297;-69
2022/06/30 07:08:10;;;;;;;4.57;3.80;;;25.10;99.90;;;;;;5133416;27;20319;-69
2022/06/30 07:10:36;;;;;;;5.07;4.30;;;25.20;99.90;;;;;;5129693;27;20314;-68
2022/06/30 07:13:05;;;;;;;4.75;4.22;;;25.20;99.90;;;;;;5133125;27;20297;-69
2022/06/30 07:15:32;;;;;;;5.32;4.35;;;25.30;99.90;;;;;;5132872;27;20206;-69
2022/06/30 07:17:59;;;;;;;7.25;4.40;;;25.40;99.90;;;;;;5130193;27;20304;-70
2022/06/30 07:20:26;;;;;;;5.85;4.78;;;25.50;99.90;;;;;;5132488;27;20197;-68
2022/06/30 07:22:54;;;;;;;6.43;4.45;;;25.60;99.90;;;;;;5132245;27;20314;-69
2022/06/30 07:25:21;;;;;;;6.47;4.13;;;25.70;99.90;;;;;;5132932;27;20212;-68
2022/06/30 07:27:48;;;;;;;5.22;4.60;;;25.70;99.90;;;;;;5131302;27;20704;-68
2022/06/30 07:30:16;;;;;;;7.22;5.15;;;25.80;99.90;;;;;;5132642;27;20232;-69
2022/06/30 07:32:43;;;;;;;8.43;4.68;;;25.90;99.90;;;;;;5132719;27;20293;-69
2022/06/30 07:35:11;;;;;;;6.15;4.50;;;26.00;99.90;;;;;;5132135;27;20737;-69
2022/06/30 07:37:39;;;;;;;6.07;4.90;;;26.10;99.90;;;;;;5131476;27;20206;-71
2022/06/30 07:40:07;;;;;;;5.25;4.05;;;26.10;99.90;;;;;;5134354;27;20609;-70
2022/06/30 07:42:35;;;;;;;7.13;4.85;;;26.20;99.90;;;;;;5133312;27;20206;-70
2022/06/30 07:45:03;;;;;;;5.47;4.70;;;26.20;99.90;;;;;;5133063;27;20659;-70
2022/06/30 07:47:31;;;;;;;7.30;4.70;;;26.20;99.90;;;;;;5130095;27;20574;-69
2022/06/30 07:49:58;;;;;;;6.72;4.80;;;26.20;99.90;;;;;;5130588;27;20333;-70
2022/06/30 07:52:25;;;;;;;8.27;4.60;;;26.20;99.90;;;;;;5133071;27;20292;-70
2022/06/30 07:54:53;;;;;;;8.43;4.60;;;26.20;99.90;;;;;;5131611;27;20209;-70
2022/06/30 07:57:20;;;;;;;7.20;4.40;;;26.20;99.90;;;;;;5132951;27;20205;-70
2022/06/30 07:59:47;;;;;;;5.65;4.60;;;26.30;99.90;;;;;;5131868;27;20635;-70
2022/06/30 08:02:14;;;;;;;6.47;4.68;;;26.30;99.90;;;;;;5132683;27;20207;-70
2022/06/30 08:04:42;;;;;;;6.25;4.68;;;26.30;99.90;;;;;;5115573;27;20269;-70
2022/06/30 08:07:09;;;;;;;5.63;4.93;;;26.20;99.90;;;;;;5112550;28;20255;-70
2022/06/30 08:09:36;;;;;;;5.93;5.03;;;26.20;99.90;;;;;;5112887;28;20232;-69
2022/06/30 08:12:06;;;;;;;6.38;4.38;;;26.20;99.90;;;;;;5128416;28;20660;-69
2022/06/30 08:14:33;;;;;;;9.60;6.43;;;26.10;99.90;;;;;;5126965;27;20206;-69
2022/06/30 08:17:00;;;;;;;6.18;4.40;;;26.20;99.90;;;;;;5131285;27;20329;-69
2022/06/30 08:19:27;;;;;;;5.90;4.40;;;26.20;99.90;;;;;;5132457;27;20228;-70
2022/06/30 08:22:00;;;;;;;9.13;4.30;;;26.30;99.90;;;;;;5134925;27;20248;-73
2022/06/30 08:24:36;;;;;;;4.57;4.05;;;26.20;99.90;;;;;;5133614;27;20210;-72
2022/06/30 08:27:04;;;;;;;4.50;3.70;;;26.30;99.90;;;;;;5131005;27;20206;-70
2022/06/30 08:29:32;;;;;;;5.03;3.88;;;26.40;99.90;;;;;;5131961;27;20199;-69
2022/06/30 08:31:59;;;;;;;4.57;4.05;;;26.40;99.90;;;;;;5134650;27;20247;-70
2022/06/30 08:34:26;;;;;;;4.40;3.85;;;26.40;99.90;;;;;;5136631;27;20293;-70
2022/06/30 08:36:53;;;;;;;6.40;4.70;;;26.40;99.90;;;;;;5136735;27;20298;-70
2022/06/30 08:42:07;;;;;;;4.38;3.80;;;26.50;99.90;;;;;;5133873;27;20219;-70
2022/06/30 08:44:35;;;;;;;5.10;3.85;;;26.50;99.90;;;;;;5136124;27;20615;-70
2022/06/30 08:47:04;;;;;;;5.00;3.60;;;26.50;99.90;;;;;;5136385;27;20248;-71
2022/06/30 08:49:32;;;;;;;3.63;3.30;;;26.60;99.90;;;;;;5136107;27;20297;-70
2022/06/30 08:52:00;;;;;;;3.45;3.15;;;26.60;99.90;;;;;;5134521;27;20650;-70
2022/06/30 08:54:30;;;;;;;4.35;3.58;;;26.60;99.90;;;;;;5132422;27;20204;-70
2022/06/30 08:57:00;;;;;;;5.00;3.58;;;26.70;99.90;;;;;;5136487;27;20203;-69
2022/06/30 08:59:28;;;;;;;4.97;3.45;;;26.70;99.90;;;;;;5135897;27;20206;-69
2022/06/30 09:01:55;;;;;;;3.85;3.45;;;26.80;99.90;;;;;;5132394;27;20274;-69
2022/06/30 09:04:23;;;;;;;5.07;4.32;;;26.80;99.90;;;;;;5133409;27;20199;-70
2022/06/30 09:06:49;;;;;;;5.53;4.00;;;26.80;99.90;;;;;;5135723;27;20290;-69
2022/06/30 09:09:17;;;;;;;4.70;3.95;;;26.70;99.90;;;;;;5132022;27;20308;-68
2022/06/30 09:11:53;;;;;;;5.60;4.40;;;26.80;99.90;;;;;;5132424;27;20307;-69
2022/06/30 09:14:37;;;;;;;6.32;4.90;;;26.80;99.90;;;;;;5133120;27;20275;-71
2022/06/30 09:17:06;;;;;;;6.82;4.60;;;26.90;99.90;;;;;;5136054;27;20251;-70
2022/06/30 09:19:37;;;;;;;5.07;4.00;;;27.00;99.90;;;;;;5134705;27;20239;-70
2022/06/30 09:22:09;;;;;;;4.72;4.32;;;27.00;99.90;;;;;;5135750;27;20184;-70
2022/06/30 09:24:36;;;;;;;7.18;4.85;;;27.00;99.90;;;;;;5135834;27;20673;-70
2022/06/30 09:27:12;;;;;;;7.40;4.80;;;27.00;99.90;;;;;;5135420;27;20290;-70
2022/06/30 09:29:47;;;;;;;7.05;5.18;;;27.10;99.90;;;;;;5134969;27;20832;-68
2022/06/30 09:32:14;;;;;;;6.28;4.40;;;27.10;99.90;;;;;;5132741;27;20589;-68
2022/06/30 09:34:42;;;;;;;5.28;4.78;;;27.20;99.90;;;;;;5133682;27;20673;-69
2022/06/30 09:37:16;;;;;;;4.95;4.45;;;27.30;99.90;;;;;;5135227;27;20643;-70
2022/06/30 09:39:44;;;;;;;6.30;4.68;;;27.40;99.90;;;;;;5133187;27;20288;-70
2022/06/30 09:42:13;;;;;;;5.32;4.53;;;27.50;99.90;;;;;;5132341;27;20283;-70
2022/06/30 09:44:41;;;;;;;6.03;5.30;;;27.60;99.90;;;;;;5135140;27;20591;-70
2022/06/30 09:47:10;;;;;;;5.85;4.90;;;27.70;99.90;;;;;;5134630;27;20251;-68
2022/06/30 09:49:39;;;;;;;7.18;5.45;;;27.70;99.90;;;;;;5134985;27;20266;-68
2022/06/30 09:52:17;;;;;;;7.07;5.25;;;27.60;99.90;;;;;;5133399;27;20231;-70
2022/06/30 09:54:54;;;;;;;8.07;5.10;;;27.70;99.90;;;;;;5134537;27;20218;-69
2022/06/30 09:57:23;;;;;;;6.00;5.40;;;27.70;99.90;;;;;;5129538;27;20291;-69
2022/06/30 09:59:59;;;;;;;7.10;5.50;;;27.70;99.90;;;;;;5134360;27;20216;-68
2022/06/30 10:02:34;;;;;;;8.32;5.85;;;27.70;99.90;;;;;;5134806;27;20655;-69
2022/06/30 10:05:02;;;;;;;5.63;5.10;;;27.70;99.90;;;;;;5131768;27;20292;-69
2022/06/30 10:07:33;;;;;;;6.00;5.13;;;27.70;99.90;;;;;;5134603;27;20557;-67
2022/06/30 10:10:01;;;;;;;6.82;5.00;;;27.60;99.90;;;;;;5132755;27;20246;-69
2022/06/30 10:12:29;;;;;;;9.65;5.78;;;27.70;99.90;;;;;;5113787;28;20784;-67
2022/06/30 10:14:56;;;;;;;6.40;5.03;;;27.70;99.90;;;;;;5121958;27;20207;-69
2022/06/30 10:17:25;;;;;;;5.32;4.82;;;27.70;99.90;;;;;;5133124;27;20284;-69
2022/06/30 10:19:53;;;;;;;5.55;4.88;;;27.70;99.90;;;;;;5126461;27;20243;-66
2022/06/30 10:22:22;;;;;;;6.65;4.50;;;27.70;99.90;;;;;;5132568;27;20197;-69
2022/06/30 10:24:50;;;;;;;7.95;5.22;;;27.60;99.90;;;;;;5132755;27;20542;-67
2022/06/30 10:27:18;;;;;;;5.78;4.40;;;27.60;99.90;;;;;;5129911;27;20309;-69
2022/06/30 10:29:53;;;;;;;7.20;5.25;;;27.60;99.90;;;;;;5132831;27;20304;-68
2022/06/30 10:32:32;;;;;;;8.68;5.22;;;27.60;99.90;;;;;;5129198;27;20213;-69
2022/06/30 10:35:08;;;;;;;7.20;5.03;;;27.70;99.90;;;;;;5129743;27;20279;-72
2022/06/30 10:37:40;;;;;;;6.95;4.80;;;27.80;99.90;;;;;;5134287;27;20225;-72
2022/06/30 10:40:16;;;;;;;5.68;4.63;;;27.80;99.90;;;;;;5128183;27;20200;-70
2022/06/30 10:42:45;;;;;;;6.75;5.10;;;27.80;99.90;;;;;;5130099;27;20239;-69
2022/06/30 10:45:53;;;;;;;11.48;5.13;;;27.90;99.90;;;;;;5129809;27;20283;-70
2022/06/30 10:48:21;;;;;;;5.38;4.65;;;27.90;99.90;;;;;;5127084;27;20201;-69
2022/06/30 10:50:49;;;;;;;5.70;5.10;;;28.00;99.90;;;;;;5132519;27;20198;-69
2022/06/30 10:53:19;;;;;;;7.07;5.45;;;28.10;99.90;;;;;;5133074;27;20635;-67
2022/06/30 10:55:54;;;;;;;7.25;4.75;;;28.20;99.90;;;;;;5133243;27;20212;-68
2022/06/30 10:58:22;;;;;;;7.05;5.13;;;28.30;99.90;;;;;;5129423;27;20291;-67
2022/06/30 11:01:01;;;;;;;6.18;5.50;;;28.30;99.90;;;;;;5122814;27;20210;-68
2022/06/30 11:03:59;;;;;;;6.47;5.20;;;28.30;99.90;;;;;;5117445;27;20246;-67
2022/06/30 11:07:08;;;;;;;6.38;5.35;;;28.30;99.90;;;;;;5133564;27;20194;-68
2022/06/30 11:09:59;;;;;;;7.65;5.80;;;28.40;99.90;;;;;;5125177;27;20212;-68
2022/06/30 11:12:58;;;;;;;7.68;4.95;;;28.40;99.90;;;;;;5095177;27;20218;-68
2022/06/30 11:15:51;;;;;;;5.88;5.13;;;28.50;99.90;;;;;;5133094;27;20210;-67
2022/06/30 11:18:21;;;;;;;7.72;5.10;;;28.50;99.90;;;;;;5133017;27;20240;-67
2022/06/30 11:20:49;;;;;;;6.18;4.97;;;28.50;99.90;;;;;;5132555;27;20202;-67
2022/06/30 11:23:21;;;;;;;5.40;4.80;;;28.50;99.90;;;;;;5131517;27;20198;-68
